sensor_id;sensor_type;location;lat;lon;timestamp;P1;durP1;ratioP1;P2;durP2;ratioP2
16612;SDS011;8419;52.358;9.752;2022-12-07T00:01:23;16.53;;;8.63;;
16612;SDS011;8419;52.358;9.752;2022-12-07T00:04:10;20.10;;;11.82;;
16612;SDS011;8419;52.358;9.752;2022-12-07T00:06:58;18.67;;;9.73;;
16612;SDS011;8419;52.358;9.752;2022-12-07T00:09:43;16.08;;;9.52;;
16612;SDS011;8419;52.358;9.752;2022-12-07T00:12:29;18.77;;;10.65;;
16612;SDS011;8419;52.358;9.752;2022-12-07T00:15:15;16.20;;;10.68;;
16612;SDS011;8419;52.358;9.752;2022-12-07T00:18:01;18.27;;;10.43;;
16612;SDS011;8419;52.358;9.752;2022-12-07T00:20:48;21.97;;;11.00;;
16612;SDS011;8419;52.358;9.752;2022-12-07T00:23:34;17.67;;;9.80;;
16612;SDS011;8419;52.358;9.752;2022-12-07T00:26:22;20.63;;;11.90;;
16612;SDS011;8419;52.358;9.752;2022-12-07T00:29:15;20.23;;;10.93;;
16612;SDS011;8419;52.358;9.752;2022-12-07T00:32:03;19.00;;;11.50;;
16612;SDS011;8419;52.358;9.752;2022-12-07T00:34:48;22.65;;;11.80;;
16612;SDS011;8419;52.358;9.752;2022-12-07T00:37:34;17.57;;;10.77;;
16612;SDS011;8419;52.358;9.752;2022-12-07T00:40:20;21.10;;;10.60;;
16612;SDS011;8419;52.358;9.752;2022-12-07T00:43:05;18.35;;;11.18;;
16612;SDS011;8419;52.358;9.752;2022-12-07T00:45:51;18.25;;;10.00;;
16612;SDS011;8419;52.358;9.752;2022-12-07T00:48:38;20.05;;;11.50;;
16612;SDS011;8419;52.358;9.752;2022-12-07T00:51:24;15.82;;;8.80;;
16612;SDS011;8419;52.358;9.752;2022-12-07T00:54:11;17.58;;;9.43;;
16612;SDS011;8419;52.358;9.752;2022-12-07T00:56:57;12.68;;;7.85;;
16612;SDS011;8419;52.358;9.752;2022-12-07T00:59:43;15.73;;;8.60;;
16612;SDS011;8419;52.358;9.752;2022-12-07T01:02:29;14.93;;;8.00;;
16612;SDS011;8419;52.358;9.752;2022-12-07T01:05:16;11.43;;;6.90;;
16612;SDS011;8419;52.358;9.752;2022-12-07T01:08:03;13.80;;;9.85;;
16612;SDS011;8419;52.358;9.752;2022-12-07T01:10:56;15.52;;;9.77;;
16612;SDS011;8419;52.358;9.752;2022-12-07T01:13:44;14.60;;;9.67;;
16612;SDS011;8419;52.358;9.752;2022-12-07T01:16:31;10.15;;;5.60;;
16612;SDS011;8419;52.358;9.752;2022-12-07T01:19:18;6.50;;;4.15;;
16612;SDS011;8419;52.358;9.752;2022-12-07T01:22:06;15.30;;;7.65;;
16612;SDS011;8419;52.358;9.752;2022-12-07T01:24:52;7.37;;;4.25;;
16612;SDS011;8419;52.358;9.752;2022-12-07T01:27:37;7.05;;;4.82;;
16612;SDS011;8419;52.358;9.752;2022-12-07T01:30:23;14.02;;;7.07;;
16612;SDS011;8419;52.358;9.752;2022-12-07T01:33:09;15.50;;;7.95;;
16612;SDS011;8419;52.358;9.752;2022-12-07T01:35:56;11.73;;;6.43;;
16612;SDS011;8419;52.358;9.752;2022-12-07T01:38:47;15.88;;;10.23;;
16612;SDS011;8419;52.358;9.752;2022-12-07T01:41:36;14.10;;;9.57;;
16612;SDS011;8419;52.358;9.752;2022-12-07T01:44:25;13.20;;;6.97;;
16612;SDS011;8419;52.358;9.752;2022-12-07T01:47:12;11.55;;;8.23;;
16612;SDS011;8419;52.358;9.752;2022-12-07T01:49:57;17.80;;;11.35;;
16612;SDS011;8419;52.358;9.752;2022-12-07T01:52:43;9.40;;;5.40;;
16612;SDS011;8419;52.358;9.752;2022-12-07T01:55:32;5.95;;;3.45;;
16612;SDS011;8419;52.358;9.752;2022-12-07T01:58:21;12.70;;;8.15;;
16612;SDS011;8419;52.358;9.752;2022-12-07T02:01:08;14.38;;;10.20;;
16612;SDS011;8419;52.358;9.752;2022-12-07T02:03:53;11.25;;;7.03;;
16612;SDS011;8419;52.358;9.752;2022-12-07T02:06:39;14.20;;;10.02;;
16612;SDS011;8419;52.358;9.752;2022-12-07T02:09:28;16.48;;;9.15;;
16612;SDS011;8419;52.358;9.752;2022-12-07T02:12:14;10.37;;;6.27;;
16612;SDS011;8419;52.358;9.752;2022-12-07T02:15:02;16.20;;;10.48;;
16612;SDS011;8419;52.358;9.752;2022-12-07T02:17:49;6.47;;;4.43;;
16612;SDS011;8419;52.358;9.752;2022-12-07T02:20:43;6.22;;;4.07;;
16612;SDS011;8419;52.358;9.752;2022-12-07T02:23:48;13.23;;;5.43;;
16612;SDS011;8419;52.358;9.752;2022-12-07T02:30:19;15.80;;;9.33;;
16612;SDS011;8419;52.358;9.752;2022-12-07T02:33:07;11.10;;;7.37;;
16612;SDS011;8419;52.358;9.752;2022-12-07T02:35:59;12.80;;;8.67;;
16612;SDS011;8419;52.358;9.752;2022-12-07T02:38:50;8.23;;;5.68;;
16612;SDS011;8419;52.358;9.752;2022-12-07T02:41:40;10.97;;;7.33;;
16612;SDS011;8419;52.358;9.752;2022-12-07T02:44:31;15.77;;;10.27;;
16612;SDS011;8419;52.358;9.752;2022-12-07T02:47:17;12.90;;;8.93;;
16612;SDS011;8419;52.358;9.752;2022-12-07T02:50:07;15.20;;;7.72;;
16612;SDS011;8419;52.358;9.752;2022-12-07T02:52:56;3.40;;;1.62;;
16612;SDS011;8419;52.358;9.752;2022-12-07T02:55:42;7.63;;;4.73;;
16612;SDS011;8419;52.358;9.752;2022-12-07T02:58:34;6.47;;;4.20;;
16612;SDS011;8419;52.358;9.752;2022-12-07T03:01:32;12.13;;;7.73;;
16612;SDS011;8419;52.358;9.752;2022-12-07T03:04:30;11.40;;;7.43;;
16612;SDS011;8419;52.358;9.752;2022-12-07T03:07:26;14.02;;;8.70;;
16612;SDS011;8419;52.358;9.752;2022-12-07T03:10:22;8.77;;;6.62;;
16612;SDS011;8419;52.358;9.752;2022-12-07T03:13:14;15.02;;;8.18;;
16612;SDS011;8419;52.358;9.752;2022-12-07T03:16:08;13.37;;;9.03;;
16612;SDS011;8419;52.358;9.752;2022-12-07T03:19:00;13.27;;;8.33;;
16612;SDS011;8419;52.358;9.752;2022-12-07T03:21:51;5.45;;;4.05;;
16612;SDS011;8419;52.358;9.752;2022-12-07T03:24:43;8.17;;;5.07;;
16612;SDS011;8419;52.358;9.752;2022-12-07T03:27:32;7.87;;;5.70;;
16612;SDS011;8419;52.358;9.752;2022-12-07T03:30:23;6.55;;;3.10;;
16612;SDS011;8419;52.358;9.752;2022-12-07T03:33:13;14.07;;;8.68;;
16612;SDS011;8419;52.358;9.752;2022-12-07T03:36:06;13.82;;;6.28;;
16612;SDS011;8419;52.358;9.752;2022-12-07T03:38:58;9.43;;;6.37;;
16612;SDS011;8419;52.358;9.752;2022-12-07T03:41:49;4.22;;;3.10;;
16612;SDS011;8419;52.358;9.752;2022-12-07T03:44:36;9.05;;;5.65;;
16612;SDS011;8419;52.358;9.752;2022-12-07T03:47:24;8.85;;;5.93;;
16612;SDS011;8419;52.358;9.752;2022-12-07T03:50:15;9.80;;;4.05;;
16612;SDS011;8419;52.358;9.752;2022-12-07T03:53:12;4.03;;;3.13;;
16612;SDS011;8419;52.358;9.752;2022-12-07T03:56:02;9.50;;;5.93;;
16612;SDS011;8419;52.358;9.752;2022-12-07T03:58:48;14.20;;;6.97;;
16612;SDS011;8419;52.358;9.752;2022-12-07T04:01:36;6.20;;;3.80;;
16612;SDS011;8419;52.358;9.752;2022-12-07T04:04:22;12.45;;;6.32;;
16612;SDS011;8419;52.358;9.752;2022-12-07T04:07:09;6.07;;;4.03;;
16612;SDS011;8419;52.358;9.752;2022-12-07T04:09:55;5.40;;;3.20;;
16612;SDS011;8419;52.358;9.752;2022-12-07T04:12:41;6.43;;;3.47;;
16612;SDS011;8419;52.358;9.752;2022-12-07T04:15:27;6.32;;;3.60;;
16612;SDS011;8419;52.358;9.752;2022-12-07T04:18:13;3.90;;;2.37;;
16612;SDS011;8419;52.358;9.752;2022-12-07T04:21:01;3.53;;;2.37;;
16612;SDS011;8419;52.358;9.752;2022-12-07T04:23:46;11.57;;;7.20;;
16612;SDS011;8419;52.358;9.752;2022-12-07T04:26:32;8.67;;;5.87;;
16612;SDS011;8419;52.358;9.752;2022-12-07T04:29:18;11.37;;;5.60;;
16612;SDS011;8419;52.358;9.752;2022-12-07T04:32:08;10.87;;;7.60;;
16612;SDS011;8419;52.358;9.752;2022-12-07T04:34:54;5.80;;;3.50;;
16612;SDS011;8419;52.358;9.752;2022-12-07T04:37:42;12.45;;;6.70;;
16612;SDS011;8419;52.358;9.752;2022-12-07T04:40:28;10.40;;;6.90;;
16612;SDS011;8419;52.358;9.752;2022-12-07T04:43:13;11.93;;;7.15;;
16612;SDS011;8419;52.358;9.752;2022-12-07T04:45:59;5.33;;;3.83;;
16612;SDS011;8419;52.358;9.752;2022-12-07T04:48:45;9.07;;;5.57;;
16612;SDS011;8419;52.358;9.752;2022-12-07T04:51:31;14.80;;;7.22;;
16612;SDS011;8419;52.358;9.752;2022-12-07T04:54:17;12.07;;;7.55;;
16612;SDS011;8419;52.358;9.752;2022-12-07T04:57:03;3.87;;;2.05;;
16612;SDS011;8419;52.358;9.752;2022-12-07T04:59:49;12.80;;;6.78;;
16612;SDS011;8419;52.358;9.752;2022-12-07T05:02:35;9.43;;;6.00;;
16612;SDS011;8419;52.358;9.752;2022-12-07T05:05:21;9.93;;;5.12;;
16612;SDS011;8419;52.358;9.752;2022-12-07T05:08:06;7.53;;;4.10;;
16612;SDS011;8419;52.358;9.752;2022-12-07T05:10:52;9.05;;;5.87;;
16612;SDS011;8419;52.358;9.752;2022-12-07T05:13:38;9.70;;;3.97;;
16612;SDS011;8419;52.358;9.752;2022-12-07T05:16:24;8.40;;;4.68;;
16612;SDS011;8419;52.358;9.752;2022-12-07T05:19:10;11.05;;;6.43;;
16612;SDS011;8419;52.358;9.752;2022-12-07T05:21:56;11.07;;;5.97;;
16612;SDS011;8419;52.358;9.752;2022-12-07T05:24:42;15.40;;;6.33;;
16612;SDS011;8419;52.358;9.752;2022-12-07T05:27:28;9.63;;;5.00;;
16612;SDS011;8419;52.358;9.752;2022-12-07T05:30:16;5.53;;;2.63;;
16612;SDS011;8419;52.358;9.752;2022-12-07T05:33:02;9.18;;;4.68;;
16612;SDS011;8419;52.358;9.752;2022-12-07T05:35:49;11.00;;;5.63;;
16612;SDS011;8419;52.358;9.752;2022-12-07T05:38:35;8.82;;;5.20;;
16612;SDS011;8419;52.358;9.752;2022-12-07T05:41:20;9.33;;;4.27;;
16612;SDS011;8419;52.358;9.752;2022-12-07T05:44:25;8.85;;;5.90;;
16612;SDS011;8419;52.358;9.752;2022-12-07T05:47:10;6.27;;;3.47;;
16612;SDS011;8419;52.358;9.752;2022-12-07T05:49:56;3.03;;;1.93;;
16612;SDS011;8419;52.358;9.752;2022-12-07T05:52:42;10.50;;;4.50;;
16612;SDS011;8419;52.358;9.752;2022-12-07T05:55:28;8.37;;;5.30;;
16612;SDS011;8419;52.358;9.752;2022-12-07T05:58:15;12.25;;;6.12;;
16612;SDS011;8419;52.358;9.752;2022-12-07T06:01:19;8.52;;;5.15;;
16612;SDS011;8419;52.358;9.752;2022-12-07T06:04:05;6.17;;;2.63;;
16612;SDS011;8419;52.358;9.752;2022-12-07T06:06:51;8.80;;;5.00;;
16612;SDS011;8419;52.358;9.752;2022-12-07T06:09:37;9.30;;;4.60;;
16612;SDS011;8419;52.358;9.752;2022-12-07T06:12:24;6.77;;;3.60;;
16612;SDS011;8419;52.358;9.752;2022-12-07T06:15:18;6.28;;;2.28;;
16612;SDS011;8419;52.358;9.752;2022-12-07T06:18:04;5.60;;;3.50;;
16612;SDS011;8419;52.358;9.752;2022-12-07T06:20:50;3.43;;;2.13;;
16612;SDS011;8419;52.358;9.752;2022-12-07T06:23:35;4.67;;;3.17;;
16612;SDS011;8419;52.358;9.752;2022-12-07T06:26:21;6.53;;;3.50;;
16612;SDS011;8419;52.358;9.752;2022-12-07T06:29:06;8.13;;;2.72;;
16612;SDS011;8419;52.358;9.752;2022-12-07T06:31:53;8.77;;;4.35;;
16612;SDS011;8419;52.358;9.752;2022-12-07T06:34:41;1.77;;;1.50;;
16612;SDS011;8419;52.358;9.752;2022-12-07T06:37:26;7.83;;;4.27;;
16612;SDS011;8419;52.358;9.752;2022-12-07T06:40:13;6.07;;;3.70;;
16612;SDS011;8419;52.358;9.752;2022-12-07T06:42:59;8.00;;;3.87;;
16612;SDS011;8419;52.358;9.752;2022-12-07T06:45:45;6.67;;;3.27;;
16612;SDS011;8419;52.358;9.752;2022-12-07T06:48:30;5.70;;;3.43;;
16612;SDS011;8419;52.358;9.752;2022-12-07T06:51:16;2.83;;;2.17;;
16612;SDS011;8419;52.358;9.752;2022-12-07T06:54:02;6.70;;;3.10;;
16612;SDS011;8419;52.358;9.752;2022-12-07T06:56:48;6.87;;;2.53;;
16612;SDS011;8419;52.358;9.752;2022-12-07T06:59:34;3.13;;;2.27;;
16612;SDS011;8419;52.358;9.752;2022-12-07T07:02:20;10.93;;;3.77;;
16612;SDS011;8419;52.358;9.752;2022-12-07T07:05:06;5.17;;;2.57;;
16612;SDS011;8419;52.358;9.752;2022-12-07T07:07:52;8.23;;;3.43;;
16612;SDS011;8419;52.358;9.752;2022-12-07T07:10:38;4.17;;;2.50;;
16612;SDS011;8419;52.358;9.752;2022-12-07T07:13:24;8.93;;;3.10;;
16612;SDS011;8419;52.358;9.752;2022-12-07T07:16:10;4.37;;;2.33;;
16612;SDS011;8419;52.358;9.752;2022-12-07T07:18:56;3.67;;;2.00;;
16612;SDS011;8419;52.358;9.752;2022-12-07T07:21:42;6.00;;;3.27;;
16612;SDS011;8419;52.358;9.752;2022-12-07T07:24:27;4.50;;;2.27;;
16612;SDS011;8419;52.358;9.752;2022-12-07T07:27:14;5.45;;;2.40;;
16612;SDS011;8419;52.358;9.752;2022-12-07T07:29:59;3.50;;;1.70;;
16612;SDS011;8419;52.358;9.752;2022-12-07T07:32:45;7.37;;;2.90;;
16612;SDS011;8419;52.358;9.752;2022-12-07T07:35:31;5.97;;;2.47;;
16612;SDS011;8419;52.358;9.752;2022-12-07T07:38:18;5.20;;;2.20;;
16612;SDS011;8419;52.358;9.752;2022-12-07T07:41:05;4.97;;;2.27;;
16612;SDS011;8419;52.358;9.752;2022-12-07T07:43:50;2.35;;;1.77;;
16612;SDS011;8419;52.358;9.752;2022-12-07T07:46:36;3.37;;;2.00;;
16612;SDS011;8419;52.358;9.752;2022-12-07T07:49:22;4.90;;;1.37;;
16612;SDS011;8419;52.358;9.752;2022-12-07T07:52:08;1.87;;;1.73;;
16612;SDS011;8419;52.358;9.752;2022-12-07T07:54:53;0.97;;;0.63;;
16612;SDS011;8419;52.358;9.752;2022-12-07T07:57:40;4.17;;;2.13;;
16612;SDS011;8419;52.358;9.752;2022-12-07T08:00:26;4.27;;;1.40;;
16612;SDS011;8419;52.358;9.752;2022-12-07T08:03:14;2.43;;;1.60;;
16612;SDS011;8419;52.358;9.752;2022-12-07T08:06:04;2.50;;;0.95;;
16612;SDS011;8419;52.358;9.752;2022-12-07T08:08:50;2.72;;;1.45;;
16612;SDS011;8419;52.358;9.752;2022-12-07T08:11:37;6.57;;;2.00;;
16612;SDS011;8419;52.358;9.752;2022-12-07T08:14:26;5.13;;;1.30;;
16612;SDS011;8419;52.358;9.752;2022-12-07T08:17:13;3.60;;;1.10;;
16612;SDS011;8419;52.358;9.752;2022-12-07T08:19:59;1.63;;;0.83;;
16612;SDS011;8419;52.358;9.752;2022-12-07T08:22:45;1.50;;;0.67;;
16612;SDS011;8419;52.358;9.752;2022-12-07T08:25:31;2.87;;;0.90;;
16612;SDS011;8419;52.358;9.752;2022-12-07T08:28:18;2.00;;;1.50;;
16612;SDS011;8419;52.358;9.752;2022-12-07T08:31:05;3.37;;;1.10;;
16612;SDS011;8419;52.358;9.752;2022-12-07T08:33:52;5.50;;;1.27;;
16612;SDS011;8419;52.358;9.752;2022-12-07T08:36:39;0.53;;;0.33;;
16612;SDS011;8419;52.358;9.752;2022-12-07T08:39:25;3.60;;;0.90;;
16612;SDS011;8419;52.358;9.752;2022-12-07T08:42:10;1.53;;;0.97;;
16612;SDS011;8419;52.358;9.752;2022-12-07T08:44:56;0.80;;;0.47;;
16612;SDS011;8419;52.358;9.752;2022-12-07T08:47:43;2.47;;;1.00;;
16612;SDS011;8419;52.358;9.752;2022-12-07T08:50:33;0.80;;;0.50;;
16612;SDS011;8419;52.358;9.752;2022-12-07T08:53:20;0.93;;;0.65;;
16612;SDS011;8419;52.358;9.752;2022-12-07T08:56:17;0.82;;;0.40;;
16612;SDS011;8419;52.358;9.752;2022-12-07T08:59:04;1.17;;;0.67;;
16612;SDS011;8419;52.358;9.752;2022-12-07T09:01:51;2.05;;;0.70;;
16612;SDS011;8419;52.358;9.752;2022-12-07T09:04:37;2.10;;;1.10;;
16612;SDS011;8419;52.358;9.752;2022-12-07T09:07:24;3.23;;;1.27;;
16612;SDS011;8419;52.358;9.752;2022-12-07T09:10:11;1.45;;;0.47;;
16612;SDS011;8419;52.358;9.752;2022-12-07T09:12:58;1.40;;;0.33;;
16612;SDS011;8419;52.358;9.752;2022-12-07T09:15:44;2.20;;;1.00;;
16612;SDS011;8419;52.358;9.752;2022-12-07T09:18:30;1.80;;;0.97;;
16612;SDS011;8419;52.358;9.752;2022-12-07T09:21:16;1.90;;;0.80;;
16612;SDS011;8419;52.358;9.752;2022-12-07T09:24:01;3.43;;;1.40;;
16612;SDS011;8419;52.358;9.752;2022-12-07T09:26:48;2.62;;;1.17;;
16612;SDS011;8419;52.358;9.752;2022-12-07T09:29:33;2.97;;;1.10;;
16612;SDS011;8419;52.358;9.752;2022-12-07T09:32:19;2.95;;;0.68;;
16612;SDS011;8419;52.358;9.752;2022-12-07T09:35:05;0.63;;;0.60;;
16612;SDS011;8419;52.358;9.752;2022-12-07T09:37:52;2.03;;;0.43;;
16612;SDS011;8419;52.358;9.752;2022-12-07T09:40:38;1.23;;;0.87;;
16612;SDS011;8419;52.358;9.752;2022-12-07T09:43:24;1.23;;;0.53;;
16612;SDS011;8419;52.358;9.752;2022-12-07T09:46:13;2.00;;;0.73;;
16612;SDS011;8419;52.358;9.752;2022-12-07T09:49:01;2.23;;;1.03;;
16612;SDS011;8419;52.358;9.752;2022-12-07T09:51:47;0.63;;;0.57;;
16612;SDS011;8419;52.358;9.752;2022-12-07T09:54:46;1.70;;;0.70;;
16612;SDS011;8419;52.358;9.752;2022-12-07T09:57:33;2.15;;;1.00;;
16612;SDS011;8419;52.358;9.752;2022-12-07T10:00:22;1.42;;;0.90;;
16612;SDS011;8419;52.358;9.752;2022-12-07T10:03:09;1.23;;;0.80;;
16612;SDS011;8419;52.358;9.752;2022-12-07T10:05:56;0.57;;;0.47;;
16612;SDS011;8419;52.358;9.752;2022-12-07T10:08:42;2.63;;;0.90;;
16612;SDS011;8419;52.358;9.752;2022-12-07T10:11:28;1.77;;;0.80;;
16612;SDS011;8419;52.358;9.752;2022-12-07T10:14:13;1.08;;;0.82;;
16612;SDS011;8419;52.358;9.752;2022-12-07T10:16:59;0.62;;;0.40;;
16612;SDS011;8419;52.358;9.752;2022-12-07T10:19:45;2.03;;;0.68;;
16612;SDS011;8419;52.358;9.752;2022-12-07T10:22:31;4.85;;;0.80;;
16612;SDS011;8419;52.358;9.752;2022-12-07T10:25:19;0.28;;;0.20;;
16612;SDS011;8419;52.358;9.752;2022-12-07T10:28:11;0.47;;;0.30;;
16612;SDS011;8419;52.358;9.752;2022-12-07T10:30:59;0.28;;;0.17;;
16612;SDS011;8419;52.358;9.752;2022-12-07T10:33:49;2.53;;;0.90;;
16612;SDS011;8419;52.358;9.752;2022-12-07T10:36:38;0.30;;;0.30;;
16612;SDS011;8419;52.358;9.752;2022-12-07T10:39:24;0.45;;;0.40;;
16612;SDS011;8419;52.358;9.752;2022-12-07T10:42:16;1.15;;;0.50;;
16612;SDS011;8419;52.358;9.752;2022-12-07T10:45:07;3.12;;;0.75;;
16612;SDS011;8419;52.358;9.752;2022-12-07T10:47:55;3.08;;;1.00;;
16612;SDS011;8419;52.358;9.752;2022-12-07T10:50:49;1.17;;;0.73;;
16612;SDS011;8419;52.358;9.752;2022-12-07T10:53:49;3.70;;;0.73;;
16612;SDS011;8419;52.358;9.752;2022-12-07T11:00:13;3.58;;;1.12;;
16612;SDS011;8419;52.358;9.752;2022-12-07T11:03:08;2.35;;;1.12;;
16612;SDS011;8419;52.358;9.752;2022-12-07T11:06:18;0.65;;;0.35;;
16612;SDS011;8419;52.358;9.752;2022-12-07T11:09:20;2.97;;;0.68;;
16612;SDS011;8419;52.358;9.752;2022-12-07T11:13:16;3.30;;;0.88;;
16612;SDS011;8419;52.358;9.752;2022-12-07T11:16:21;0.77;;;0.37;;
16612;SDS011;8419;52.358;9.752;2022-12-07T11:19:19;1.10;;;0.57;;
16612;SDS011;8419;52.358;9.752;2022-12-07T11:22:30;0.95;;;0.45;;
16612;SDS011;8419;52.358;9.752;2022-12-07T11:25:31;0.30;;;0.30;;
16612;SDS011;8419;52.358;9.752;2022-12-07T11:28:28;2.08;;;0.80;;
16612;SDS011;8419;52.358;9.752;2022-12-07T11:31:24;2.57;;;0.37;;
16612;SDS011;8419;52.358;9.752;2022-12-07T11:34:19;1.90;;;0.50;;
16612;SDS011;8419;52.358;9.752;2022-12-07T11:37:18;0.10;;;0.10;;
16612;SDS011;8419;52.358;9.752;2022-12-07T11:40:11;3.30;;;0.60;;
16612;SDS011;8419;52.358;9.752;2022-12-07T11:43:03;0.83;;;0.70;;
16612;SDS011;8419;52.358;9.752;2022-12-07T11:45:58;2.17;;;0.70;;
16612;SDS011;8419;52.358;9.752;2022-12-07T11:48:49;2.30;;;1.03;;
16612;SDS011;8419;52.358;9.752;2022-12-07T11:51:42;1.10;;;0.70;;
16612;SDS011;8419;52.358;9.752;2022-12-07T11:54:34;3.30;;;0.80;;
16612;SDS011;8419;52.358;9.752;2022-12-07T11:57:27;1.10;;;0.65;;
16612;SDS011;8419;52.358;9.752;2022-12-07T12:00:18;0.30;;;0.30;;
16612;SDS011;8419;52.358;9.752;2022-12-07T12:03:07;3.20;;;1.00;;
16612;SDS011;8419;52.358;9.752;2022-12-07T12:05:57;1.07;;;0.90;;
16612;SDS011;8419;52.358;9.752;2022-12-07T12:08:43;4.47;;;1.30;;
16612;SDS011;8419;52.358;9.752;2022-12-07T12:11:39;2.07;;;1.13;;
16612;SDS011;8419;52.358;9.752;2022-12-07T12:14:44;1.63;;;1.10;;
16612;SDS011;8419;52.358;9.752;2022-12-07T12:17:45;5.80;;;1.40;;
16612;SDS011;8419;52.358;9.752;2022-12-07T12:20:42;3.20;;;1.90;;
16612;SDS011;8419;52.358;9.752;2022-12-07T12:23:34;0.77;;;0.37;;
16612;SDS011;8419;52.358;9.752;2022-12-07T12:26:26;1.50;;;1.33;;
16612;SDS011;8419;52.358;9.752;2022-12-07T12:29:19;3.37;;;1.80;;
16612;SDS011;8419;52.358;9.752;2022-12-07T12:32:13;4.20;;;1.60;;
16612;SDS011;8419;52.358;9.752;2022-12-07T12:35:17;4.53;;;1.20;;
16612;SDS011;8419;52.358;9.752;2022-12-07T12:38:29;2.67;;;1.50;;
16612;SDS011;8419;52.358;9.752;2022-12-07T12:48:27;1.10;;;0.77;;
16612;SDS011;8419;52.358;9.752;2022-12-07T12:54:41;0.83;;;0.53;;
16612;SDS011;8419;52.358;9.752;2022-12-07T12:57:45;1.03;;;0.40;;
16612;SDS011;8419;52.358;9.752;2022-12-07T13:00:31;2.22;;;0.82;;
16612;SDS011;8419;52.358;9.752;2022-12-07T13:03:21;4.37;;;1.90;;
16612;SDS011;8419;52.358;9.752;2022-12-07T13:06:29;5.50;;;1.35;;
16612;SDS011;8419;52.358;9.752;2022-12-07T13:09:21;3.42;;;1.65;;
16612;SDS011;8419;52.358;9.752;2022-12-07T13:12:14;3.87;;;1.23;;
16612;SDS011;8419;52.358;9.752;2022-12-07T13:15:19;2.90;;;1.17;;
16612;SDS011;8419;52.358;9.752;2022-12-07T13:18:22;6.53;;;1.27;;
16612;SDS011;8419;52.358;9.752;2022-12-07T13:24:26;3.92;;;1.75;;
16612;SDS011;8419;52.358;9.752;2022-12-07T13:27:15;3.72;;;1.42;;
16612;SDS011;8419;52.358;9.752;2022-12-07T13:30:07;3.45;;;1.42;;
16612;SDS011;8419;52.358;9.752;2022-12-07T13:33:00;6.85;;;1.20;;
16612;SDS011;8419;52.358;9.752;2022-12-07T13:35:47;1.48;;;0.70;;
16612;SDS011;8419;52.358;9.752;2022-12-07T13:38:40;0.53;;;0.53;;
16612;SDS011;8419;52.358;9.752;2022-12-07T13:41:34;5.75;;;1.10;;
16612;SDS011;8419;52.358;9.752;2022-12-07T13:44:20;4.95;;;1.73;;
16612;SDS011;8419;52.358;9.752;2022-12-07T13:47:11;4.82;;;1.20;;
16612;SDS011;8419;52.358;9.752;2022-12-07T13:50:00;1.25;;;0.73;;
16612;SDS011;8419;52.358;9.752;2022-12-07T13:52:46;2.05;;;0.50;;
16612;SDS011;8419;52.358;9.752;2022-12-07T13:55:33;2.85;;;0.90;;
16612;SDS011;8419;52.358;9.752;2022-12-07T13:58:19;1.37;;;0.60;;
16612;SDS011;8419;52.358;9.752;2022-12-07T14:01:06;3.08;;;1.33;;
16612;SDS011;8419;52.358;9.752;2022-12-07T14:03:52;1.42;;;0.60;;
16612;SDS011;8419;52.358;9.752;2022-12-07T14:06:46;3.03;;;1.30;;
16612;SDS011;8419;52.358;9.752;2022-12-07T14:09:33;7.22;;;1.10;;
16612;SDS011;8419;52.358;9.752;2022-12-07T14:12:18;2.00;;;0.90;;
16612;SDS011;8419;52.358;9.752;2022-12-07T14:15:05;2.53;;;0.77;;
16612;SDS011;8419;52.358;9.752;2022-12-07T14:18:04;2.33;;;1.10;;
16612;SDS011;8419;52.358;9.752;2022-12-07T14:21:15;0.60;;;0.60;;
16612;SDS011;8419;52.358;9.752;2022-12-07T14:24:08;3.65;;;1.58;;
16612;SDS011;8419;52.358;9.752;2022-12-07T14:26:56;3.53;;;1.20;;
16612;SDS011;8419;52.358;9.752;2022-12-07T14:29:42;3.95;;;0.75;;
16612;SDS011;8419;52.358;9.752;2022-12-07T14:32:28;0.50;;;0.30;;
16612;SDS011;8419;52.358;9.752;2022-12-07T14:35:16;3.87;;;1.40;;
16612;SDS011;8419;52.358;9.752;2022-12-07T14:38:03;2.13;;;0.93;;
16612;SDS011;8419;52.358;9.752;2022-12-07T14:40:49;8.13;;;2.10;;
16612;SDS011;8419;52.358;9.752;2022-12-07T14:43:35;2.83;;;1.35;;
16612;SDS011;8419;52.358;9.752;2022-12-07T14:46:21;4.22;;;1.58;;
16612;SDS011;8419;52.358;9.752;2022-12-07T14:49:06;3.03;;;1.20;;
16612;SDS011;8419;52.358;9.752;2022-12-07T14:51:53;6.53;;;2.22;;
16612;SDS011;8419;52.358;9.752;2022-12-07T14:54:40;1.20;;;0.60;;
16612;SDS011;8419;52.358;9.752;2022-12-07T14:57:27;3.63;;;1.43;;
16612;SDS011;8419;52.358;9.752;2022-12-07T15:00:16;1.40;;;1.20;;
16612;SDS011;8419;52.358;9.752;2022-12-07T15:03:05;2.03;;;1.20;;
16612;SDS011;8419;52.358;9.752;2022-12-07T15:05:50;4.40;;;1.70;;
16612;SDS011;8419;52.358;9.752;2022-12-07T15:08:36;2.93;;;1.60;;
16612;SDS011;8419;52.358;9.752;2022-12-07T15:11:21;3.07;;;0.80;;
16612;SDS011;8419;52.358;9.752;2022-12-07T15:14:10;6.72;;;2.05;;
16612;SDS011;8419;52.358;9.752;2022-12-07T15:16:56;4.33;;;1.50;;
16612;SDS011;8419;52.358;9.752;2022-12-07T15:19:42;3.83;;;1.62;;
16612;SDS011;8419;52.358;9.752;2022-12-07T15:22:28;5.53;;;1.27;;
16612;SDS011;8419;52.358;9.752;2022-12-07T15:25:15;4.87;;;1.33;;
16612;SDS011;8419;52.358;9.752;2022-12-07T15:28:01;5.40;;;1.83;;
16612;SDS011;8419;52.358;9.752;2022-12-07T15:30:47;4.63;;;1.33;;
16612;SDS011;8419;52.358;9.752;2022-12-07T15:33:33;4.03;;;1.43;;
16612;SDS011;8419;52.358;9.752;2022-12-07T15:36:20;3.83;;;1.50;;
16612;SDS011;8419;52.358;9.752;2022-12-07T15:39:08;4.67;;;1.83;;
16612;SDS011;8419;52.358;9.752;2022-12-07T15:41:54;5.73;;;2.13;;
16612;SDS011;8419;52.358;9.752;2022-12-07T15:44:40;3.20;;;1.90;;
16612;SDS011;8419;52.358;9.752;2022-12-07T15:47:44;1.67;;;1.17;;
16612;SDS011;8419;52.358;9.752;2022-12-07T15:50:30;5.17;;;1.77;;
16612;SDS011;8419;52.358;9.752;2022-12-07T15:53:15;3.33;;;1.53;;
16612;SDS011;8419;52.358;9.752;2022-12-07T15:56:01;3.30;;;1.37;;
16612;SDS011;8419;52.358;9.752;2022-12-07T15:58:51;4.33;;;1.07;;
16612;SDS011;8419;52.358;9.752;2022-12-07T16:01:37;3.20;;;1.90;;
16612;SDS011;8419;52.358;9.752;2022-12-07T16:04:23;4.97;;;1.50;;
16612;SDS011;8419;52.358;9.752;2022-12-07T16:07:08;0.67;;;0.63;;
16612;SDS011;8419;52.358;9.752;2022-12-07T16:09:55;3.50;;;2.03;;
16612;SDS011;8419;52.358;9.752;2022-12-07T16:12:41;0.60;;;0.40;;
16612;SDS011;8419;52.358;9.752;2022-12-07T16:15:27;5.03;;;1.93;;
16612;SDS011;8419;52.358;9.752;2022-12-07T16:18:12;5.67;;;2.40;;
16612;SDS011;8419;52.358;9.752;2022-12-07T16:20:58;2.67;;;1.40;;
16612;SDS011;8419;52.358;9.752;2022-12-07T16:23:45;3.00;;;1.80;;
16612;SDS011;8419;52.358;9.752;2022-12-07T16:26:30;6.10;;;2.37;;
16612;SDS011;8419;52.358;9.752;2022-12-07T16:29:17;2.87;;;1.30;;
16612;SDS011;8419;52.358;9.752;2022-12-07T16:32:06;4.37;;;1.40;;
16612;SDS011;8419;52.358;9.752;2022-12-07T16:34:52;4.80;;;1.93;;
16612;SDS011;8419;52.358;9.752;2022-12-07T16:37:38;4.53;;;2.17;;
16612;SDS011;8419;52.358;9.752;2022-12-07T16:40:26;1.90;;;1.00;;
16612;SDS011;8419;52.358;9.752;2022-12-07T16:43:11;4.20;;;1.93;;
16612;SDS011;8419;52.358;9.752;2022-12-07T16:46:00;5.97;;;2.40;;
16612;SDS011;8419;52.358;9.752;2022-12-07T16:48:46;5.72;;;3.35;;
16612;SDS011;8419;52.358;9.752;2022-12-07T16:51:32;7.37;;;2.90;;
16612;SDS011;8419;52.358;9.752;2022-12-07T16:54:19;7.37;;;2.50;;
16612;SDS011;8419;52.358;9.752;2022-12-07T16:57:05;4.30;;;2.42;;
16612;SDS011;8419;52.358;9.752;2022-12-07T16:59:51;5.57;;;2.60;;
16612;SDS011;8419;52.358;9.752;2022-12-07T17:02:37;4.65;;;1.17;;
16612;SDS011;8419;52.358;9.752;2022-12-07T17:05:23;1.23;;;1.13;;
16612;SDS011;8419;52.358;9.752;2022-12-07T17:08:09;4.20;;;2.50;;
16612;SDS011;8419;52.358;9.752;2022-12-07T17:10:56;5.68;;;2.20;;
16612;SDS011;8419;52.358;9.752;2022-12-07T17:13:42;4.87;;;2.53;;
16612;SDS011;8419;52.358;9.752;2022-12-07T17:16:46;4.93;;;2.80;;
16612;SDS011;8419;52.358;9.752;2022-12-07T17:19:32;3.95;;;2.45;;
16612;SDS011;8419;52.358;9.752;2022-12-07T17:22:18;6.13;;;2.40;;
16612;SDS011;8419;52.358;9.752;2022-12-07T17:25:04;6.60;;;2.83;;
16612;SDS011;8419;52.358;9.752;2022-12-07T17:27:50;5.87;;;3.15;;
16612;SDS011;8419;52.358;9.752;2022-12-07T17:30:36;4.82;;;1.50;;